createdAt,value
2016-09-18T00:00:03.320Z,0
2016-09-18T00:00:36.778Z,0
2016-09-18T00:01:09.091Z,0
2016-09-18T00:01:41.423Z,0
2016-09-18T00:02:13.766Z,0
2016-09-18T00:02:46.118Z,0
2016-09-18T00:03:18.451Z,0
2016-09-18T00:03:50.767Z,0
2016-09-18T00:04:23.094Z,0
2016-09-18T00:04:55.410Z,0
2016-09-18T00:05:27.737Z,0
2016-09-18T00:06:00.061Z,0
2016-09-18T00:06:33.326Z,0
2016-09-18T00:07:06.917Z,0
2016-09-18T00:07:39.353Z,0
2016-09-18T00:08:11.670Z,0
2016-09-18T00:08:43.989Z,0
2016-09-18T00:09:16.332Z,0
2016-09-18T00:09:48.663Z,0
2016-09-18T00:10:20.992Z,0
2016-09-18T00:10:54.448Z,0
2016-09-18T00:11:26.769Z,0
2016-09-18T00:11:59.105Z,0
2016-09-18T00:12:31.417Z,0
2016-09-18T00:13:03.738Z,0
2016-09-18T00:13:36.060Z,0
2016-09-18T00:14:08.369Z,0
2016-09-18T00:14:40.692Z,0
2016-09-18T00:15:13.006Z,0
2016-09-18T00:15:45.323Z,0
2016-09-18T00:16:17.658Z,0
2016-09-18T00:16:49.997Z,0
2016-09-18T00:17:22.321Z,0
2016-09-18T00:17:54.644Z,0
2016-09-18T00:18:26.991Z,0
2016-09-18T00:18:59.295Z,0
2016-09-18T00:19:31.615Z,0
2016-09-18T00:20:03.948Z,0
2016-09-18T00:20:36.270Z,0
2016-09-18T00:21:08.608Z,0
2016-09-18T00:21:40.922Z,0
2016-09-18T00:22:13.246Z,0
2016-09-18T00:22:45.574Z,0
2016-09-18T00:23:17.918Z,0
2016-09-18T00:23:50.245Z,0
2016-09-18T00:24:22.575Z,0
2016-09-18T00:24:54.926Z,0
2016-09-18T00:25:27.249Z,0
2016-09-18T00:25:59.583Z,0
2016-09-18T00:26:31.909Z,0
2016-09-18T00:27:04.244Z,0
2016-09-18T00:27:36.580Z,0
2016-09-18T00:28:08.899Z,0
2016-09-18T00:28:41.232Z,0
2016-09-18T00:29:13.552Z,0
2016-09-18T00:29:45.875Z,0
2016-09-18T00:30:18.211Z,0
2016-09-18T00:30:50.552Z,0
2016-09-18T00:31:22.888Z,0
2016-09-18T00:31:55.220Z,0
2016-09-18T00:32:27.546Z,0
2016-09-18T00:32:59.884Z,0
2016-09-18T00:33:32.208Z,0
2016-09-18T00:34:04.530Z,0
2016-09-18T00:34:36.860Z,0
2016-09-18T00:35:09.199Z,0
2016-09-18T00:35:41.526Z,0
2016-09-18T00:36:13.852Z,0
2016-09-18T00:36:46.186Z,0
2016-09-18T00:37:18.519Z,0
2016-09-18T00:37:50.856Z,0
2016-09-18T00:38:23.185Z,0
2016-09-18T00:38:55.503Z,0
2016-09-18T00:39:27.814Z,0
2016-09-18T00:40:00.148Z,0
2016-09-18T00:40:32.476Z,0
2016-09-18T00:41:04.806Z,0
2016-09-18T00:41:37.142Z,0
2016-09-18T00:42:09.471Z,0
2016-09-18T00:42:41.798Z,0
2016-09-18T00:43:14.140Z,0
2016-09-18T00:43:46.466Z,0
2016-09-18T00:44:18.792Z,0
2016-09-18T00:44:51.123Z,0
2016-09-18T00:45:23.434Z,0
2016-09-18T00:45:55.763Z,0
2016-09-18T00:46:28.082Z,0
2016-09-18T00:47:00.410Z,0
2016-09-18T00:47:32.735Z,0
2016-09-18T00:48:05.063Z,0
2016-09-18T00:48:37.393Z,0
2016-09-18T00:49:09.713Z,0
2016-09-18T00:49:42.045Z,0
2016-09-18T00:50:14.381Z,0
2016-09-18T00:50:46.702Z,0
2016-09-18T00:51:19.022Z,0
2016-09-18T00:51:51.350Z,0
2016-09-18T00:52:23.679Z,0
2016-09-18T00:52:56.003Z,0
2016-09-18T00:53:28.324Z,0
2016-09-18T00:54:00.654Z,0
2016-09-18T00:54:32.979Z,0
2016-09-18T00:55:05.312Z,0
2016-09-18T00:55:37.648Z,0
2016-09-18T00:56:09.973Z,0
2016-09-18T00:56:42.300Z,0
2016-09-18T00:57:14.624Z,0
2016-09-18T00:57:46.960Z,0
2016-09-18T00:58:19.295Z,0
2016-09-18T00:58:51.630Z,0
2016-09-18T00:59:23.960Z,0
2016-09-18T00:59:56.276Z,0
2016-09-18T01:00:28.611Z,0
2016-09-18T01:01:00.931Z,0
2016-09-18T01:01:33.255Z,0
2016-09-18T01:02:05.589Z,0
2016-09-18T01:02:37.912Z,0
2016-09-18T01:03:10.233Z,0
2016-09-18T01:03:42.563Z,0
2016-09-18T01:04:14.889Z,0
2016-09-18T01:04:47.215Z,0
2016-09-18T01:05:19.552Z,0
2016-09-18T01:05:51.890Z,0
2016-09-18T01:06:24.217Z,0
2016-09-18T01:06:56.553Z,0
2016-09-18T01:07:28.886Z,0
2016-09-18T01:08:01.218Z,0
2016-09-18T01:08:33.541Z,0
2016-09-18T01:09:05.869Z,0
2016-09-18T01:09:38.193Z,0
2016-09-18T01:10:10.534Z,0
2016-09-18T01:10:42.867Z,0
2016-09-18T01:11:15.186Z,0
2016-09-18T01:11:47.513Z,0
2016-09-18T01:12:19.841Z,0
2016-09-18T01:12:52.172Z,0
2016-09-18T01:13:24.484Z,0
2016-09-18T01:13:56.818Z,0
2016-09-18T01:14:29.157Z,0
2016-09-18T01:15:01.501Z,0
2016-09-18T01:15:33.854Z,0
2016-09-18T01:16:06.181Z,0
2016-09-18T01:16:38.522Z,0
2016-09-18T01:17:10.865Z,0
2016-09-18T01:17:43.185Z,0
2016-09-18T01:18:15.501Z,0
2016-09-18T01:18:47.823Z,0
2016-09-18T01:19:20.159Z,0
2016-09-18T01:19:52.489Z,0
2016-09-18T01:20:24.827Z,0
2016-09-18T01:20:57.150Z,0
2016-09-18T01:21:29.482Z,0
2016-09-18T01:22:01.815Z,0
2016-09-18T01:22:34.169Z,0
2016-09-18T01:23:06.525Z,0
2016-09-18T01:23:38.846Z,0
2016-09-18T01:24:11.156Z,0
2016-09-18T01:24:43.477Z,0
2016-09-18T01:25:15.813Z,0
2016-09-18T01:25:48.149Z,0
2016-09-18T01:26:20.473Z,0
2016-09-18T01:26:52.794Z,0
2016-09-18T01:27:25.130Z,0
2016-09-18T01:27:57.464Z,0
2016-09-18T01:28:29.798Z,0
2016-09-18T01:29:02.135Z,0
2016-09-18T01:29:34.474Z,0
2016-09-18T01:30:06.815Z,0
2016-09-18T01:30:39.135Z,0
2016-09-18T01:31:11.459Z,0
2016-09-18T01:31:43.800Z,0
2016-09-18T01:32:16.131Z,0
2016-09-18T01:32:48.461Z,0
2016-09-18T01:33:20.790Z,0
2016-09-18T01:33:53.123Z,0
2016-09-18T01:34:25.450Z,0
2016-09-18T01:34:57.775Z,0
2016-09-18T01:35:30.108Z,0
2016-09-18T01:36:02.449Z,0
2016-09-18T01:36:34.782Z,0
2016-09-18T01:37:07.091Z,0
2016-09-18T01:37:39.414Z,0
2016-09-18T01:38:11.747Z,0
2016-09-18T01:38:44.080Z,0
2016-09-18T01:39:16.389Z,0
2016-09-18T01:39:48.718Z,0
2016-09-18T01:40:21.050Z,0
2016-09-18T01:40:53.384Z,0
2016-09-18T01:41:25.724Z,0
2016-09-18T01:41:58.030Z,0
2016-09-18T01:42:30.352Z,0
2016-09-18T01:43:02.708Z,0
2016-09-18T01:43:35.043Z,0
2016-09-18T01:44:07.361Z,0
2016-09-18T01:44:39.673Z,0
2016-09-18T01:45:11.997Z,0
2016-09-18T01:45:44.343Z,0
2016-09-18T01:46:16.666Z,0
2016-09-18T01:46:48.994Z,0
2016-09-18T01:47:21.317Z,0
2016-09-18T01:47:53.651Z,0
2016-09-18T01:48:25.975Z,0
2016-09-18T01:48:58.301Z,0
2016-09-18T01:49:30.633Z,0
2016-09-18T01:50:02.977Z,0
2016-09-18T01:50:35.305Z,0
2016-09-18T01:51:07.623Z,0
2016-09-18T01:51:39.956Z,0
2016-09-18T01:52:12.290Z,0
2016-09-18T01:52:44.625Z,0
2016-09-18T01:53:16.945Z,0
2016-09-18T01:53:49.261Z,0
2016-09-18T01:54:21.594Z,0
2016-09-18T01:54:53.923Z,0
2016-09-18T01:55:26.261Z,0
2016-09-18T01:55:58.584Z,0
2016-09-18T01:56:30.920Z,0
2016-09-18T01:57:03.257Z,0
2016-09-18T01:57:35.591Z,0
2016-09-18T01:58:07.916Z,0
2016-09-18T01:58:40.239Z,0
2016-09-18T01:59:12.564Z,0
2016-09-18T01:59:44.896Z,0
2016-09-18T02:00:17.227Z,0
2016-09-18T02:00:49.558Z,0
2016-09-18T02:01:21.881Z,0
2016-09-18T02:01:54.218Z,0
2016-09-18T02:02:26.538Z,0
2016-09-18T02:02:58.856Z,0
2016-09-18T02:03:31.188Z,0
2016-09-18T02:04:03.521Z,0
2016-09-18T02:04:35.860Z,0
2016-09-18T02:05:08.190Z,0
2016-09-18T02:05:40.519Z,0
2016-09-18T02:06:12.843Z,0
2016-09-18T02:06:45.177Z,0
2016-09-18T02:07:17.511Z,0
2016-09-18T02:07:49.844Z,0
2016-09-18T02:08:22.191Z,0
2016-09-18T02:08:54.518Z,0
2016-09-18T02:09:26.847Z,0
2016-09-18T02:09:59.904Z,0
2016-09-18T02:10:32.239Z,0
2016-09-18T02:11:04.565Z,0
2016-09-18T02:11:36.909Z,0
2016-09-18T02:12:09.232Z,0
2016-09-18T02:12:41.548Z,0
2016-09-18T02:13:13.878Z,0
2016-09-18T02:13:46.212Z,0
2016-09-18T02:14:18.539Z,0
2016-09-18T02:14:50.859Z,0
2016-09-18T02:15:23.191Z,0
2016-09-18T02:15:55.527Z,0
2016-09-18T02:16:27.864Z,0
2016-09-18T02:17:00.191Z,0
2016-09-18T02:17:32.519Z,0
2016-09-18T02:18:04.862Z,0
2016-09-18T02:18:37.196Z,0
2016-09-18T02:19:09.525Z,0
2016-09-18T02:19:41.850Z,0
2016-09-18T02:20:14.173Z,0
2016-09-18T02:20:46.511Z,0
2016-09-18T02:21:18.846Z,0
2016-09-18T02:21:51.162Z,0
2016-09-18T02:22:23.494Z,0
2016-09-18T02:22:55.826Z,0
2016-09-18T02:23:28.162Z,0
2016-09-18T02:24:00.483Z,0
2016-09-18T02:24:32.807Z,0
2016-09-18T02:25:05.141Z,0
2016-09-18T02:25:37.481Z,0
2016-09-18T02:26:09.805Z,0
2016-09-18T02:26:42.140Z,0
2016-09-18T02:27:14.475Z,0
2016-09-18T02:27:46.813Z,0
2016-09-18T02:28:19.144Z,0
2016-09-18T02:28:51.475Z,0
2016-09-18T02:29:23.801Z,0
2016-09-18T02:29:56.135Z,0
2016-09-18T02:30:28.451Z,0
2016-09-18T02:31:00.785Z,0
2016-09-18T02:31:33.113Z,0
2016-09-18T02:32:05.449Z,0
2016-09-18T02:32:37.769Z,0
2016-09-18T02:33:10.085Z,0
2016-09-18T02:33:42.420Z,0
2016-09-18T02:34:14.759Z,0
2016-09-18T02:34:47.087Z,0
2016-09-18T02:35:19.420Z,0
2016-09-18T02:35:51.734Z,0
2016-09-18T02:36:24.063Z,0
2016-09-18T02:36:56.392Z,0
2016-09-18T02:37:28.727Z,0
2016-09-18T02:38:01.062Z,0
2016-09-18T02:38:33.403Z,0
2016-09-18T02:39:05.735Z,0
2016-09-18T02:39:38.067Z,0
2016-09-18T02:40:10.391Z,0
2016-09-18T02:40:42.717Z,0
2016-09-18T02:41:15.048Z,0
2016-09-18T02:41:47.376Z,0
2016-09-18T02:42:19.717Z,0
2016-09-18T02:42:52.048Z,0
2016-09-18T02:43:24.381Z,0
2016-09-18T02:43:56.706Z,0
2016-09-18T02:44:29.050Z,0
2016-09-18T02:45:01.393Z,0
2016-09-18T02:45:33.720Z,0
2016-09-18T02:46:06.042Z,0
2016-09-18T02:46:38.375Z,0
2016-09-18T02:47:10.715Z,0
2016-09-18T02:47:43.052Z,0
2016-09-18T02:48:15.378Z,0
2016-09-18T02:48:47.705Z,0
2016-09-18T02:49:20.039Z,0
2016-09-18T02:49:52.382Z,0
2016-09-18T02:50:24.711Z,0
2016-09-18T02:50:57.039Z,0
2016-09-18T02:51:29.388Z,0
2016-09-18T02:52:01.710Z,0
2016-09-18T02:52:34.027Z,0
2016-09-18T02:53:06.342Z,0
2016-09-18T02:53:38.681Z,0
2016-09-18T02:54:11.009Z,0
2016-09-18T02:54:43.343Z,0
2016-09-18T02:55:15.677Z,0
2016-09-18T02:55:48.023Z,0
2016-09-18T02:56:20.353Z,0
2016-09-18T02:56:52.715Z,0
2016-09-18T02:57:25.047Z,0
2016-09-18T02:57:57.377Z,0
2016-09-18T02:58:29.703Z,0
2016-09-18T02:59:02.036Z,0
2016-09-18T02:59:34.372Z,0
2016-09-18T03:00:06.714Z,0
2016-09-18T03:00:39.045Z,0
2016-09-18T03:01:11.379Z,0
2016-09-18T03:01:43.709Z,0
2016-09-18T03:02:16.042Z,0
2016-09-18T03:02:48.375Z,0
2016-09-18T03:03:20.696Z,0
2016-09-18T03:03:53.012Z,0
2016-09-18T03:04:25.329Z,0
2016-09-18T03:04:57.669Z,0
2016-09-18T03:05:30.001Z,0
2016-09-18T03:06:02.332Z,0
2016-09-18T03:06:34.674Z,0
2016-09-18T03:07:07.014Z,0
2016-09-18T03:07:39.331Z,0
2016-09-18T03:08:11.655Z,0
2016-09-18T03:08:44.002Z,0
2016-09-18T03:09:16.330Z,0
2016-09-18T03:09:48.684Z,0
2016-09-18T03:10:21.006Z,0
2016-09-18T03:10:53.343Z,0
2016-09-18T03:11:25.680Z,0
2016-09-18T03:11:58.027Z,0
2016-09-18T03:12:30.349Z,0
2016-09-18T03:13:02.685Z,0
2016-09-18T03:13:35.000Z,0
2016-09-18T03:14:07.332Z,0
2016-09-18T03:14:39.679Z,0
2016-09-18T03:15:11.997Z,0
2016-09-18T03:15:44.320Z,0
2016-09-18T03:16:16.647Z,0
2016-09-18T03:16:48.974Z,0
2016-09-18T03:17:21.305Z,0
2016-09-18T03:17:53.643Z,0
2016-09-18T03:18:25.985Z,0
2016-09-18T03:18:58.327Z,0
2016-09-18T03:19:30.653Z,0
2016-09-18T03:20:02.992Z,0
2016-09-18T03:20:35.321Z,0
2016-09-18T03:21:07.661Z,0
2016-09-18T03:21:39.995Z,0
2016-09-18T03:22:12.324Z,0
2016-09-18T03:22:44.674Z,0
2016-09-18T03:23:17.008Z,0
2016-09-18T03:23:49.331Z,0
2016-09-18T03:24:21.656Z,0
2016-09-18T03:24:53.986Z,0
2016-09-18T03:25:26.308Z,0
2016-09-18T03:25:58.638Z,0
2016-09-18T03:26:30.958Z,0
2016-09-18T03:27:03.283Z,0
2016-09-18T03:27:35.627Z,0
2016-09-18T03:28:07.963Z,0
2016-09-18T03:28:40.304Z,0
2016-09-18T03:29:12.626Z,0
2016-09-18T03:29:44.960Z,0
2016-09-18T03:30:17.284Z,0
2016-09-18T03:30:49.601Z,0
2016-09-18T03:31:21.927Z,0
2016-09-18T03:31:54.256Z,0
2016-09-18T03:32:26.585Z,0
2016-09-18T03:32:58.921Z,0
2016-09-18T03:33:31.232Z,0
2016-09-18T03:34:03.540Z,0
2016-09-18T03:34:35.875Z,0
2016-09-18T03:35:08.206Z,0
2016-09-18T03:35:40.540Z,0
2016-09-18T03:36:12.856Z,0
2016-09-18T03:36:45.184Z,0
2016-09-18T03:37:17.512Z,0
2016-09-18T03:37:49.840Z,0
2016-09-18T03:38:22.178Z,0
2016-09-18T03:38:54.500Z,0
2016-09-18T03:39:26.823Z,0
2016-09-18T03:39:59.168Z,0
2016-09-18T03:40:31.491Z,0
2016-09-18T03:41:03.791Z,0
2016-09-18T03:41:36.116Z,0
2016-09-18T03:42:08.441Z,0
2016-09-18T03:42:40.762Z,0
2016-09-18T03:43:13.081Z,0
2016-09-18T03:43:45.413Z,0
2016-09-18T03:44:17.741Z,0
2016-09-18T03:44:50.052Z,0
2016-09-18T03:45:22.362Z,0
2016-09-18T03:45:54.698Z,0
2016-09-18T03:46:27.033Z,0
2016-09-18T03:46:59.373Z,0
2016-09-18T03:47:31.710Z,0
2016-09-18T03:48:04.031Z,0
2016-09-18T03:48:36.357Z,0
2016-09-18T03:49:08.672Z,0
2016-09-18T03:49:41.009Z,0
2016-09-18T03:50:13.335Z,0
2016-09-18T03:50:45.646Z,0
2016-09-18T03:51:17.971Z,0
2016-09-18T03:51:50.290Z,0
2016-09-18T03:52:22.634Z,0
2016-09-18T03:52:54.958Z,0
2016-09-18T03:53:27.289Z,0
2016-09-18T03:53:59.616Z,0
2016-09-18T03:54:31.942Z,0
2016-09-18T03:55:04.258Z,0
2016-09-18T03:55:36.590Z,0
2016-09-18T03:56:08.930Z,0
2016-09-18T03:56:41.266Z,0
2016-09-18T03:57:13.608Z,0
2016-09-18T03:57:45.943Z,0
2016-09-18T03:58:18.262Z,0
2016-09-18T03:58:50.584Z,0
2016-09-18T03:59:22.918Z,0
2016-09-18T03:59:55.281Z,0
2016-09-18T04:00:27.613Z,0
2016-09-18T04:00:59.938Z,0
2016-09-18T04:01:32.265Z,0
2016-09-18T04:02:04.615Z,0
2016-09-18T04:02:36.948Z,0
2016-09-18T04:03:09.299Z,0
2016-09-18T04:03:41.625Z,0
2016-09-18T04:04:13.948Z,0
2016-09-18T04:04:46.261Z,0
2016-09-18T04:05:18.574Z,0
2016-09-18T04:05:50.917Z,0
2016-09-18T04:06:23.239Z,0
2016-09-18T04:06:55.566Z,0
2016-09-18T04:07:27.904Z,0
2016-09-18T04:08:00.245Z,0
2016-09-18T04:08:32.590Z,0
2016-09-18T04:09:04.916Z,0
2016-09-18T04:09:37.239Z,0
2016-09-18T04:10:09.557Z,0
2016-09-18T04:10:41.890Z,0
2016-09-18T04:11:14.217Z,0
2016-09-18T04:11:46.540Z,0
2016-09-18T04:12:18.882Z,0
2016-09-18T04:12:51.214Z,0
2016-09-18T04:13:23.544Z,0
2016-09-18T04:13:55.869Z,0
2016-09-18T04:14:28.196Z,0
2016-09-18T04:15:00.525Z,0
2016-09-18T04:15:32.830Z,0
2016-09-18T04:16:05.166Z,0
2016-09-18T04:16:37.500Z,0
2016-09-18T04:17:09.832Z,0
2016-09-18T04:17:42.154Z,0
2016-09-18T04:18:14.491Z,0
2016-09-18T04:18:46.827Z,0
2016-09-18T04:19:19.157Z,0
2016-09-18T04:19:51.486Z,0
2016-09-18T04:20:23.821Z,0
2016-09-18T04:20:56.145Z,0
2016-09-18T04:21:28.476Z,0
2016-09-18T04:22:00.800Z,0
2016-09-18T04:22:33.124Z,0
2016-09-18T04:23:05.449Z,0
2016-09-18T04:23:37.774Z,0
2016-09-18T04:24:10.106Z,0
2016-09-18T04:24:42.433Z,0
2016-09-18T04:25:14.768Z,0
2016-09-18T04:25:47.087Z,0
2016-09-18T04:26:19.407Z,0
2016-09-18T04:26:51.752Z,0
2016-09-18T04:27:24.089Z,0
2016-09-18T04:27:56.428Z,0
2016-09-18T04:28:28.763Z,0
2016-09-18T04:29:01.098Z,0
2016-09-18T04:29:33.437Z,0
2016-09-18T04:30:05.763Z,0
2016-09-18T04:30:38.099Z,0
2016-09-18T04:31:10.422Z,0
2016-09-18T04:31:42.749Z,0
2016-09-18T04:32:15.067Z,0
2016-09-18T04:32:47.393Z,0
2016-09-18T04:33:19.719Z,0
2016-09-18T04:33:52.054Z,0
2016-09-18T04:34:24.389Z,0
2016-09-18T04:34:56.722Z,0
2016-09-18T04:35:29.043Z,0
2016-09-18T04:36:01.374Z,0
2016-09-18T04:36:33.678Z,0
2016-09-18T04:37:06.005Z,0
2016-09-18T04:37:38.322Z,0
2016-09-18T04:38:10.649Z,0
2016-09-18T04:38:42.976Z,0
2016-09-18T04:39:15.297Z,0
2016-09-18T04:39:47.633Z,0
2016-09-18T04:40:19.960Z,0
2016-09-18T04:40:52.295Z,0
2016-09-18T04:41:24.613Z,0
2016-09-18T04:41:56.944Z,0
2016-09-18T04:42:29.269Z,0
2016-09-18T04:43:01.599Z,0
2016-09-18T04:43:33.922Z,0
2016-09-18T04:44:06.235Z,0
2016-09-18T04:44:38.568Z,0
2016-09-18T04:45:10.898Z,0
2016-09-18T04:45:43.216Z,0
2016-09-18T04:46:15.530Z,0
2016-09-18T04:46:47.878Z,0
2016-09-18T04:47:20.194Z,0
2016-09-18T04:47:52.528Z,0
2016-09-18T04:48:24.868Z,0
2016-09-18T04:48:57.210Z,0
2016-09-18T04:49:29.547Z,0
2016-09-18T04:50:01.878Z,0
2016-09-18T04:50:34.205Z,0
2016-09-18T04:51:06.531Z,0
2016-09-18T04:51:38.859Z,0
2016-09-18T04:52:11.191Z,0
2016-09-18T04:52:43.507Z,0
2016-09-18T04:53:15.841Z,0
2016-09-18T04:53:48.173Z,0
2016-09-18T04:54:20.509Z,0
2016-09-18T04:54:52.835Z,0
2016-09-18T04:55:25.160Z,0
2016-09-18T04:55:57.500Z,0
2016-09-18T04:56:29.849Z,0
2016-09-18T04:57:02.195Z,0
2016-09-18T04:57:34.530Z,0
2016-09-18T04:58:06.841Z,0
2016-09-18T04:58:39.187Z,0
2016-09-18T04:59:11.501Z,0
2016-09-18T04:59:43.834Z,0
2016-09-18T05:00:16.163Z,0
2016-09-18T05:00:48.480Z,0
2016-09-18T05:01:20.820Z,0
2016-09-18T05:01:53.148Z,0
2016-09-18T05:02:25.476Z,0
2016-09-18T05:02:57.809Z,0
2016-09-18T05:03:30.144Z,0
2016-09-18T05:04:02.472Z,0
2016-09-18T05:04:34.811Z,0
2016-09-18T05:05:07.138Z,0
2016-09-18T05:05:39.457Z,0
2016-09-18T05:06:11.779Z,0
2016-09-18T05:06:44.114Z,0
2016-09-18T05:07:16.442Z,0
2016-09-18T05:07:48.776Z,0
2016-09-18T05:08:21.104Z,0
2016-09-18T05:08:53.425Z,0
2016-09-18T05:09:25.756Z,0
2016-09-18T05:09:58.086Z,0
2016-09-18T05:10:30.418Z,0
2016-09-18T05:11:02.740Z,0
2016-09-18T05:11:35.073Z,0
2016-09-18T05:12:07.421Z,0
2016-09-18T05:12:39.749Z,0
2016-09-18T05:13:12.073Z,0
2016-09-18T05:13:44.405Z,0
2016-09-18T05:14:16.746Z,0
2016-09-18T05:14:49.085Z,0
2016-09-18T05:15:21.409Z,0
2016-09-18T05:15:53.733Z,0
2016-09-18T05:16:26.063Z,0
2016-09-18T05:16:58.405Z,0
2016-09-18T05:17:30.737Z,0
2016-09-18T05:18:03.072Z,0
2016-09-18T05:18:35.399Z,0
2016-09-18T05:19:07.743Z,0
2016-09-18T05:19:40.065Z,0
2016-09-18T05:20:12.381Z,0
2016-09-18T05:20:44.707Z,0
2016-09-18T05:21:17.046Z,0
2016-09-18T05:21:49.378Z,0
2016-09-18T05:22:21.711Z,0
2016-09-18T05:22:54.034Z,0
2016-09-18T05:23:26.360Z,0
2016-09-18T05:23:58.694Z,0
2016-09-18T05:24:31.010Z,0
2016-09-18T05:25:03.340Z,0
2016-09-18T05:25:35.664Z,0
2016-09-18T05:26:07.975Z,0
2016-09-18T05:26:40.302Z,0
2016-09-18T05:27:12.631Z,0
2016-09-18T05:27:44.949Z,0
2016-09-18T05:28:17.270Z,0
2016-09-18T05:28:49.607Z,0
2016-09-18T05:29:21.950Z,0
2016-09-18T05:29:54.282Z,0
2016-09-18T05:30:26.612Z,0
2016-09-18T05:30:58.951Z,0
2016-09-18T05:31:31.284Z,0
2016-09-18T05:32:03.616Z,0
2016-09-18T05:32:35.942Z,0
2016-09-18T05:33:08.264Z,0
2016-09-18T05:33:40.596Z,0
2016-09-18T05:34:12.918Z,0
2016-09-18T05:34:45.248Z,0
2016-09-18T05:35:17.593Z,0
2016-09-18T05:35:49.912Z,0
2016-09-18T05:36:22.245Z,0
2016-09-18T05:36:54.579Z,0
2016-09-18T05:37:26.912Z,0
2016-09-18T05:37:59.239Z,0
2016-09-18T05:38:31.582Z,0
2016-09-18T05:39:03.943Z,0
2016-09-18T05:39:36.265Z,0
2016-09-18T05:40:08.579Z,0
2016-09-18T05:40:40.905Z,5
2016-09-18T05:41:13.251Z,5
2016-09-18T05:41:45.594Z,5
2016-09-18T05:42:17.923Z,0
2016-09-18T05:42:50.257Z,0
2016-09-18T05:43:22.582Z,0
2016-09-18T05:43:54.903Z,0
2016-09-18T05:44:27.221Z,0
2016-09-18T05:44:59.552Z,0
2016-09-18T05:45:31.876Z,0
2016-09-18T05:46:04.221Z,0
2016-09-18T05:46:36.545Z,0
2016-09-18T05:47:08.876Z,0
2016-09-18T05:47:41.200Z,0
2016-09-18T05:48:13.533Z,0
2016-09-18T05:48:45.865Z,0
2016-09-18T05:49:18.208Z,0
2016-09-18T05:49:50.527Z,0
2016-09-18T05:50:22.835Z,0
2016-09-18T05:50:55.158Z,0
2016-09-18T05:51:27.486Z,0
2016-09-18T05:51:59.823Z,0
2016-09-18T05:52:32.134Z,0
2016-09-18T05:53:04.470Z,0
2016-09-18T05:53:36.795Z,0
2016-09-18T05:54:09.122Z,0
2016-09-18T05:54:41.450Z,0
2016-09-18T05:55:13.779Z,0
2016-09-18T05:55:46.123Z,0
2016-09-18T05:56:18.443Z,0
2016-09-18T05:56:50.775Z,5
2016-09-18T05:57:23.097Z,5
2016-09-18T05:57:55.430Z,5
2016-09-18T05:58:27.763Z,5
2016-09-18T05:59:00.080Z,5
2016-09-18T05:59:32.413Z,5
2016-09-18T06:00:04.735Z,5
2016-09-18T06:00:37.101Z,5
2016-09-18T06:01:09.420Z,5
2016-09-18T06:01:41.767Z,5
2016-09-18T06:02:14.095Z,5
2016-09-18T06:02:46.419Z,5
2016-09-18T06:03:18.752Z,5
2016-09-18T06:03:51.094Z,5
2016-09-18T06:04:23.425Z,5
2016-09-18T06:04:55.758Z,5
2016-09-18T06:05:28.087Z,5
2016-09-18T06:06:00.414Z,5
2016-09-18T06:06:32.743Z,5
2016-09-18T06:07:05.079Z,5
2016-09-18T06:07:37.404Z,5
2016-09-18T06:08:09.736Z,5
2016-09-18T06:08:42.086Z,5
2016-09-18T06:09:14.407Z,5
2016-09-18T06:09:46.725Z,5
2016-09-18T06:10:19.049Z,5
2016-09-18T06:10:51.369Z,5
2016-09-18T06:11:23.675Z,5
2016-09-18T06:11:56.018Z,5
2016-09-18T06:12:28.344Z,5
2016-09-18T06:13:00.674Z,5
2016-09-18T06:13:33.010Z,5
2016-09-18T06:14:05.336Z,5
2016-09-18T06:14:37.667Z,5
2016-09-18T06:15:10.013Z,5
2016-09-18T06:15:42.343Z,5
2016-09-18T06:16:14.681Z,5
2016-09-18T06:16:47.014Z,5
2016-09-18T06:17:19.345Z,5
2016-09-18T06:17:51.690Z,10
2016-09-18T06:18:24.036Z,10
2016-09-18T06:18:56.378Z,10
2016-09-18T06:19:28.709Z,10
2016-09-18T06:20:01.040Z,15
2016-09-18T06:20:33.363Z,15
2016-09-18T06:21:05.703Z,15
2016-09-18T06:21:38.040Z,15
2016-09-18T06:22:10.381Z,15
2016-09-18T06:22:42.717Z,15
2016-09-18T06:23:15.043Z,15
2016-09-18T06:23:47.375Z,15
2016-09-18T06:24:19.722Z,15
2016-09-18T06:24:52.063Z,15
2016-09-18T06:25:24.407Z,10
2016-09-18T06:25:56.742Z,10
2016-09-18T06:26:29.067Z,10
2016-09-18T06:27:01.387Z,10
2016-09-18T06:27:33.723Z,10
2016-09-18T06:28:06.038Z,10
2016-09-18T06:28:38.379Z,10
2016-09-18T06:29:10.704Z,10
2016-09-18T06:29:43.043Z,10
2016-09-18T06:30:15.373Z,10
2016-09-18T06:30:47.716Z,10
2016-09-18T06:31:20.036Z,10
2016-09-18T06:31:52.365Z,10
2016-09-18T06:32:24.696Z,15
2016-09-18T06:32:57.040Z,15
2016-09-18T06:33:29.359Z,10
2016-09-18T06:34:01.685Z,10
2016-09-18T06:34:34.020Z,10
2016-09-18T06:35:06.356Z,15
2016-09-18T06:35:38.696Z,10
2016-09-18T06:36:11.012Z,15
2016-09-18T06:36:43.349Z,15
2016-09-18T06:37:15.689Z,15
2016-09-18T06:37:48.019Z,15
2016-09-18T06:38:20.345Z,15
2016-09-18T06:38:52.675Z,15
2016-09-18T06:39:25.002Z,15
2016-09-18T06:39:57.336Z,15
2016-09-18T06:40:29.650Z,15
2016-09-18T06:41:02.001Z,15
2016-09-18T06:41:34.334Z,15
2016-09-18T06:42:06.668Z,20
2016-09-18T06:42:39.008Z,20
2016-09-18T06:43:11.334Z,25
2016-09-18T06:43:43.659Z,20
2016-09-18T06:44:15.987Z,25
2016-09-18T06:44:48.294Z,25
2016-09-18T06:45:20.621Z,25
2016-09-18T06:45:52.958Z,25
2016-09-18T06:46:25.293Z,25
2016-09-18T06:46:57.606Z,25
2016-09-18T06:47:29.941Z,25
2016-09-18T06:48:02.260Z,25
2016-09-18T06:48:34.587Z,25
2016-09-18T06:49:06.901Z,20
2016-09-18T06:49:39.231Z,20
2016-09-18T06:50:11.554Z,20
2016-09-18T06:50:43.877Z,20
2016-09-18T06:51:16.217Z,25
2016-09-18T06:51:48.552Z,25
2016-09-18T06:52:20.886Z,25
2016-09-18T06:52:53.238Z,25
2016-09-18T06:53:25.562Z,25
2016-09-18T06:53:57.891Z,25
2016-09-18T06:54:30.206Z,25
2016-09-18T06:55:02.533Z,20
2016-09-18T06:55:34.865Z,20
2016-09-18T06:56:07.196Z,25
2016-09-18T06:56:39.531Z,25
2016-09-18T06:57:11.874Z,25
2016-09-18T06:57:44.198Z,25
2016-09-18T06:58:16.520Z,25
2016-09-18T06:58:48.839Z,25
2016-09-18T06:59:21.164Z,25
2016-09-18T06:59:53.505Z,25
2016-09-18T07:00:25.836Z,25
2016-09-18T07:00:58.179Z,25
2016-09-18T07:01:30.507Z,25
2016-09-18T07:02:02.843Z,25
2016-09-18T07:02:35.171Z,25
2016-09-18T07:03:07.503Z,25
2016-09-18T07:03:39.822Z,25
2016-09-18T07:04:12.159Z,25
2016-09-18T07:04:44.484Z,25
2016-09-18T07:05:16.831Z,25
2016-09-18T07:05:49.170Z,25
2016-09-18T07:06:21.499Z,25
2016-09-18T07:06:53.845Z,25
2016-09-18T07:07:26.206Z,25
2016-09-18T07:07:58.541Z,25
2016-09-18T07:08:30.868Z,25
2016-09-18T07:09:03.201Z,25
2016-09-18T07:09:35.534Z,25
2016-09-18T07:10:07.861Z,25
2016-09-18T07:10:40.185Z,25
2016-09-18T07:11:12.507Z,25
2016-09-18T07:11:44.847Z,25
2016-09-18T07:12:17.159Z,30
2016-09-18T07:12:49.474Z,30
2016-09-18T07:13:21.808Z,30
2016-09-18T07:13:54.126Z,30
2016-09-18T07:14:26.451Z,30
2016-09-18T07:14:58.775Z,30
2016-09-18T07:15:31.105Z,30
2016-09-18T07:16:03.445Z,30
2016-09-18T07:16:35.771Z,30
2016-09-18T07:17:08.099Z,35
2016-09-18T07:17:40.432Z,35
2016-09-18T07:18:12.759Z,40
2016-09-18T07:18:45.075Z,45
2016-09-18T07:19:17.389Z,40
2016-09-18T07:19:49.723Z,40
2016-09-18T07:20:22.063Z,35
2016-09-18T07:20:54.380Z,40
2016-09-18T07:21:26.709Z,40
2016-09-18T07:21:59.043Z,35
2016-09-18T07:22:31.383Z,35
2016-09-18T07:23:03.712Z,35
2016-09-18T07:23:36.034Z,35
2016-09-18T07:24:08.365Z,35
2016-09-18T07:24:40.691Z,35
2016-09-18T07:25:13.007Z,35
2016-09-18T07:25:45.320Z,35
2016-09-18T07:26:17.643Z,35
2016-09-18T07:26:49.990Z,40
2016-09-18T07:27:22.320Z,35
2016-09-18T07:27:54.653Z,35
2016-09-18T07:28:26.972Z,40
2016-09-18T07:28:59.300Z,45
2016-09-18T07:29:31.635Z,45
2016-09-18T07:30:03.940Z,40
2016-09-18T07:30:36.266Z,40
2016-09-18T07:31:08.595Z,40
2016-09-18T07:31:40.927Z,45
2016-09-18T07:32:13.255Z,45
2016-09-18T07:32:45.591Z,45
2016-09-18T07:33:17.926Z,45
2016-09-18T07:33:50.271Z,45
2016-09-18T07:34:22.598Z,50
2016-09-18T07:34:54.923Z,50
2016-09-18T07:35:27.258Z,50
2016-09-18T07:35:59.569Z,50
2016-09-18T07:36:31.892Z,50
2016-09-18T07:37:04.220Z,55
2016-09-18T07:37:36.550Z,55
2016-09-18T07:38:08.874Z,55
2016-09-18T07:38:41.204Z,55
2016-09-18T07:39:13.525Z,55
2016-09-18T07:39:45.848Z,55
2016-09-18T07:40:18.270Z,55
2016-09-18T07:40:50.613Z,55
2016-09-18T07:41:22.943Z,60
2016-09-18T07:41:55.266Z,60
2016-09-18T07:42:27.590Z,60
2016-09-18T07:42:59.931Z,60
2016-09-18T07:43:32.265Z,60
2016-09-18T07:44:04.582Z,60
2016-09-18T07:44:36.914Z,55
2016-09-18T07:45:09.259Z,55
2016-09-18T07:45:41.586Z,60
2016-09-18T07:46:13.902Z,65
2016-09-18T07:46:46.226Z,65
2016-09-18T07:47:18.559Z,70
2016-09-18T07:47:50.890Z,70
2016-09-18T07:48:23.198Z,65
2016-09-18T07:48:55.527Z,60
2016-09-18T07:49:27.862Z,60
2016-09-18T07:50:00.192Z,55
2016-09-18T07:50:32.527Z,55
2016-09-18T07:51:04.865Z,60
2016-09-18T07:51:37.198Z,60
2016-09-18T07:52:09.519Z,55
2016-09-18T07:52:41.825Z,55
2016-09-18T07:53:14.156Z,55
2016-09-18T07:53:46.484Z,55
2016-09-18T07:54:18.819Z,55